createdAt,value
2018-08-23T00:04:05.521Z,15.3
2018-08-23T00:09:07.862Z,15.2
2018-08-23T00:14:09.964Z,15.3
2018-08-23T00:19:12.473Z,15.2
2018-08-23T00:24:14.595Z,15.1
2018-08-23T00:29:16.856Z,15.1
2018-08-23T00:34:19.165Z,15.1
2018-08-23T00:39:21.536Z,15.1
2018-08-23T00:44:23.808Z,15.1
2018-08-23T00:49:26.069Z,15.1
2018-08-23T00:54:28.364Z,15.1
2018-08-23T00:59:30.689Z,15.2
2018-08-23T01:04:32.892Z,15.1
2018-08-23T01:09:35.236Z,15.2
2018-08-23T01:14:37.488Z,15.2
2018-08-23T01:19:39.749Z,15.2
2018-08-23T01:24:42.144Z,15.2
2018-08-23T01:29:45.871Z,15.3
2018-08-23T01:34:46.686Z,15.2
2018-08-23T01:39:48.972Z,15.2
2018-08-23T01:44:51.399Z,15.3
2018-08-23T01:49:53.580Z,15.5
2018-08-23T01:54:55.840Z,15.6
2018-08-23T01:59:59.600Z,15.6
2018-08-23T02:05:00.396Z,15.7
2018-08-23T02:10:02.844Z,15.7
2018-08-23T02:15:05.076Z,15.8
2018-08-23T02:20:07.345Z,15.8
2018-08-23T02:25:09.807Z,15.8
2018-08-23T02:30:12.005Z,15.8
2018-08-23T02:35:14.211Z,15.7
2018-08-23T02:40:17.121Z,15.7
2018-08-23T02:45:18.919Z,15.7
2018-08-23T02:50:21.063Z,15.6
2018-08-23T02:55:23.416Z,15.6
2018-08-23T03:00:25.718Z,15.6
2018-08-23T03:05:27.947Z,15.6
2018-08-23T03:10:30.284Z,15.6
2018-08-23T03:15:32.628Z,15.6
2018-08-23T03:20:34.904Z,15.5
2018-08-23T03:25:37.267Z,15.5
2018-08-23T03:30:39.462Z,15.5
2018-08-23T03:35:41.901Z,15.5
2018-08-23T03:40:44.179Z,15.4
2018-08-23T03:45:46.367Z,15.4
2018-08-23T03:50:49.832Z,15.4
2018-08-23T03:55:50.969Z,15.4
2018-08-23T04:00:53.290Z,15.3
2018-08-23T04:05:55.535Z,15.3
2018-08-23T04:10:57.846Z,15.4
2018-08-23T04:16:00.117Z,15.4
2018-08-23T04:21:02.390Z,15.5
2018-08-23T04:26:04.689Z,15.5
2018-08-23T04:31:07.283Z,15.5
2018-08-23T04:36:09.331Z,15.5
2018-08-23T04:41:14.523Z,15.5
2018-08-23T04:46:13.877Z,15.5
2018-08-23T04:51:16.127Z,15.5
2018-08-23T04:56:18.553Z,15.5
2018-08-23T05:01:20.794Z,15.5
2018-08-23T05:06:22.969Z,15.6
2018-08-23T05:11:25.334Z,15.6
2018-08-23T05:16:27.656Z,15.6
2018-08-23T05:21:29.894Z,15.7
2018-08-23T05:26:33.687Z,15.7
2018-08-23T05:31:34.759Z,15.8
2018-08-23T05:36:37.003Z,15.8
2018-08-23T05:41:39.186Z,15.9
2018-08-23T05:46:41.365Z,15.9
2018-08-23T05:51:43.701Z,15.9
2018-08-23T05:56:45.968Z,16
2018-08-23T06:01:48.338Z,16
2018-08-23T06:06:50.601Z,16.1
2018-08-23T06:11:52.918Z,16.200001
2018-08-23T06:16:55.238Z,16.299999
2018-08-23T06:21:57.415Z,16.4
2018-08-23T06:26:59.853Z,16.5
2018-08-23T06:32:02.162Z,16.6
2018-08-23T06:37:05.699Z,16.700001
2018-08-23T06:42:06.685Z,16.700001
2018-08-23T06:47:09.044Z,16.799999
2018-08-23T06:52:11.338Z,16.9
2018-08-23T06:57:13.481Z,17
2018-08-23T07:02:15.855Z,17
2018-08-23T07:12:24.662Z,17.1
2018-08-23T07:17:27.052Z,17.1
2018-08-23T07:22:29.246Z,17.1
2018-08-23T07:27:31.648Z,17.1
2018-08-23T07:32:34.875Z,17.1
2018-08-23T07:37:37.278Z,17
2018-08-23T07:42:38.456Z,17.1
2018-08-23T07:47:40.743Z,17
2018-08-23T07:52:43.031Z,17
2018-08-23T07:57:45.431Z,17
2018-08-23T08:02:47.618Z,17.1
2018-08-23T08:07:49.914Z,17.1
2018-08-23T08:12:52.230Z,17.1
2018-08-23T08:17:54.453Z,17.1
2018-08-23T08:22:56.882Z,17.200001
2018-08-23T08:33:01.361Z,18.4
2018-08-23T08:38:03.738Z,19
2018-08-23T08:43:05.978Z,19.1
2018-08-23T08:48:08.245Z,19
2018-08-23T08:53:10.501Z,18.9
2018-08-23T08:58:12.947Z,18.799999
2018-08-23T09:03:15.144Z,18.700001
2018-08-23T09:08:17.417Z,18.700001
2018-08-23T09:13:19.889Z,18.700001
2018-08-23T09:18:22.003Z,18.700001
2018-08-23T09:23:24.295Z,18.9
2018-08-23T09:28:26.544Z,19
2018-08-23T09:33:28.924Z,19.1
2018-08-23T09:38:31.306Z,19.4
2018-08-23T09:43:33.575Z,19.799999
2018-08-23T09:48:35.769Z,20
2018-08-23T09:53:38.045Z,20.6
2018-08-23T09:58:40.378Z,20.700001
2018-08-23T10:03:42.701Z,20.700001
2018-08-23T10:08:45.009Z,20.700001
2018-08-23T10:13:47.318Z,20.700001
2018-08-23T10:18:49.634Z,21.1
2018-08-23T10:23:51.952Z,21.299999
2018-08-23T10:28:55.268Z,21.299999
2018-08-23T10:33:56.414Z,21.5
2018-08-23T10:38:58.790Z,21.6
2018-08-23T10:44:01.001Z,21.6
2018-08-23T10:49:03.363Z,21.4
2018-08-23T10:54:05.696Z,21.299999
2018-08-23T10:59:08.810Z,21.700001
2018-08-23T11:04:10.120Z,22.200001
2018-08-23T11:09:12.505Z,22.5
2018-08-23T11:14:14.871Z,23.200001
2018-08-23T11:19:17.136Z,24.5
2018-08-23T11:24:19.451Z,24.6
2018-08-23T11:29:21.832Z,23.6
2018-08-23T11:34:24.015Z,22.799999
2018-08-23T11:39:26.344Z,22.4
2018-08-23T11:44:28.526Z,22.4
2018-08-23T11:49:30.800Z,22.4
2018-08-23T11:54:33.164Z,22.5
2018-08-23T11:59:35.461Z,22.5
2018-08-23T12:04:37.668Z,22.4
2018-08-23T12:09:40.159Z,22.4
2018-08-23T12:14:42.382Z,22.200001
2018-08-23T12:19:44.794Z,22
2018-08-23T12:24:48.770Z,21.9
2018-08-23T12:29:49.408Z,21.9
2018-08-23T12:34:51.657Z,22.700001
2018-08-23T12:39:53.789Z,23.1
2018-08-23T12:44:56.064Z,23.200001
2018-08-23T12:49:58.514Z,23.1
2018-08-23T12:55:00.730Z,23
2018-08-23T13:00:02.980Z,22.9
2018-08-23T13:05:05.299Z,22.700001
2018-08-23T13:10:07.577Z,22.6
2018-08-23T13:15:09.886Z,22.700001
2018-08-23T13:20:12.140Z,22.700001
2018-08-23T13:25:14.458Z,22.6
2018-08-23T13:30:16.935Z,22.5
2018-08-23T13:35:19.054Z,22.6
2018-08-23T13:40:21.257Z,22.700001
2018-08-23T13:45:23.725Z,22.799999
2018-08-23T13:50:25.980Z,22.9
2018-08-23T13:55:28.198Z,23
2018-08-23T14:00:30.591Z,23.1
2018-08-23T14:05:34.279Z,24
2018-08-23T14:10:35.076Z,24.299999
2018-08-23T14:15:37.343Z,24.1
2018-08-23T14:20:39.702Z,23.6
2018-08-23T14:25:42.157Z,23.299999
2018-08-23T14:30:44.377Z,23.1
2018-08-23T14:35:46.563Z,23.1
2018-08-23T14:40:48.880Z,23.1
2018-08-23T14:45:51.276Z,22.9
2018-08-23T14:55:55.784Z,22.6
2018-08-23T15:00:58.137Z,22.799999
2018-08-23T15:06:01.690Z,23
2018-08-23T15:11:02.837Z,23.200001
2018-08-23T15:16:04.872Z,23.200001
2018-08-23T15:21:07.197Z,23.200001
2018-08-23T15:26:09.612Z,23.5
2018-08-23T15:31:11.772Z,23.4
2018-08-23T15:36:15.198Z,23.4
2018-08-23T15:41:16.403Z,23.4
2018-08-23T15:46:18.721Z,23.299999
2018-08-23T15:51:21.039Z,23.4
2018-08-23T15:56:23.366Z,23.4
2018-08-23T16:01:25.595Z,23.5
2018-08-23T16:06:27.935Z,23.799999
2018-08-23T16:11:30.151Z,24.200001
2018-08-23T16:16:32.422Z,24.5
2018-08-23T16:21:34.777Z,24.6
2018-08-23T16:26:37.060Z,24.6
2018-08-23T16:31:39.304Z,24.4
2018-08-23T16:36:41.603Z,24.299999
2018-08-23T16:41:43.971Z,23.799999
2018-08-23T16:46:46.302Z,23.5
2018-08-23T16:51:48.570Z,23.200001
2018-08-23T16:56:50.981Z,22.9
2018-08-23T17:01:53.164Z,22.799999
2018-08-23T17:06:55.514Z,22.5
2018-08-23T17:11:57.668Z,22.4
2018-08-23T17:17:00.063Z,22.299999
2018-08-23T17:22:02.219Z,22.200001
2018-08-23T17:27:04.590Z,22.200001
2018-08-23T17:32:07.036Z,22
2018-08-23T17:37:09.256Z,22
2018-08-23T17:42:11.463Z,21.9
2018-08-23T17:47:13.745Z,21.9
2018-08-23T17:52:16.055Z,21.799999
2018-08-23T17:57:18.274Z,21.700001
2018-08-23T18:02:20.841Z,21.700001
2018-08-23T18:07:23.282Z,21.6
2018-08-23T18:12:25.402Z,21.5
2018-08-23T18:17:27.519Z,21.4
2018-08-23T18:22:30.357Z,21.4
2018-08-23T18:27:32.161Z,21.299999
2018-08-23T18:32:34.377Z,21.299999
2018-08-23T18:37:36.856Z,21.299999
2018-08-23T18:42:39.126Z,21.200001
2018-08-23T18:47:41.218Z,21.200001
2018-08-23T18:52:43.579Z,21.1
2018-08-23T18:57:45.858Z,21
2018-08-23T19:02:48.359Z,21
2018-08-23T19:07:50.523Z,20.9
2018-08-23T19:12:52.767Z,20.799999
2018-08-23T19:17:55.079Z,20.799999
2018-08-23T19:22:57.389Z,20.700001
2018-08-23T19:27:59.639Z,20.6
2018-08-23T19:33:01.994Z,20.6
2018-08-23T19:38:04.249Z,20.6
2018-08-23T19:43:06.505Z,20.5
2018-08-23T19:48:08.925Z,20.5
2018-08-23T19:53:12.184Z,20.5
2018-08-23T19:58:13.359Z,20.5
2018-08-23T20:03:15.749Z,20.4
2018-08-23T20:08:18.017Z,20.299999
2018-08-23T20:13:20.229Z,19.9
2018-08-23T20:18:22.604Z,19.799999
2018-08-23T20:23:25.013Z,19.6
2018-08-23T20:28:27.181Z,19.4
2018-08-23T20:33:29.411Z,19.4
2018-08-23T20:38:31.686Z,19.299999
2018-08-23T20:43:34.070Z,19.200001
2018-08-23T20:48:36.465Z,19.200001
2018-08-23T20:53:38.597Z,19.200001
2018-08-23T20:58:40.956Z,19.200001
2018-08-23T21:03:43.274Z,19.200001
2018-08-23T21:08:45.600Z,19.1
2018-08-23T21:13:47.754Z,19.1
2018-08-23T21:18:50.134Z,19
2018-08-23T21:23:52.446Z,18.9
2018-08-23T21:28:54.727Z,18.799999
2018-08-23T21:33:56.999Z,18.700001
2018-08-23T21:38:59.364Z,18.6
2018-08-23T21:44:01.681Z,18.5
2018-08-23T21:49:03.793Z,18.4
2018-08-23T21:54:06.724Z,18.299999
2018-08-23T21:59:08.462Z,18.200001
2018-08-23T22:04:10.748Z,18.1
2018-08-23T22:09:13.115Z,18
2018-08-23T22:14:15.465Z,18
2018-08-23T22:19:17.552Z,17.9
2018-08-23T22:24:19.918Z,17.9
2018-08-23T22:29:22.283Z,17.799999
2018-08-23T22:34:24.539Z,17.700001
2018-08-23T22:39:32.759Z,17.700001
2018-08-23T22:44:29.124Z,17.700001
2018-08-23T22:49:31.585Z,17.6
2018-08-23T22:54:33.880Z,17.700001
2018-08-23T22:59:35.953Z,17.5
2018-08-23T23:04:38.276Z,17.4
2018-08-23T23:09:40.587Z,17.299999
2018-08-23T23:14:42.848Z,17.200001
2018-08-23T23:19:45.238Z,17.1
2018-08-23T23:24:47.425Z,17
2018-08-23T23:29:49.733Z,16.9
2018-08-23T23:34:52.220Z,16.9
2018-08-23T23:39:54.427Z,16.9
2018-08-23T23:44:56.680Z,16.9
2018-08-23T23:49:58.926Z,16.9
2018-08-23T23:55:01.412Z,16.9
